createdAt,value
2018-04-24T00:02:24.328Z,8.00
2018-04-24T00:04:53.330Z,7.60
2018-04-24T00:07:22.204Z,9.00
2018-04-24T00:09:50.446Z,8.20
2018-04-24T00:12:18.838Z,8.13
2018-04-24T00:14:53.096Z,8.17
2018-04-24T00:17:21.296Z,8.53
2018-04-24T00:19:49.008Z,9.00
2018-04-24T00:22:17.343Z,8.90
2018-04-24T00:24:44.794Z,8.83
2018-04-24T00:27:12.234Z,8.90
2018-04-24T00:29:39.940Z,8.93
2018-04-24T00:32:08.091Z,8.97
2018-04-24T00:34:35.687Z,8.47
2018-04-24T00:37:03.118Z,9.30
2018-04-24T00:39:33.443Z,9.03
2018-04-24T00:42:00.892Z,9.37
2018-04-24T00:44:29.000Z,9.67
2018-04-24T00:46:56.423Z,8.77
2018-04-24T00:49:23.853Z,8.27
2018-04-24T00:51:51.359Z,9.37
2018-04-24T00:54:19.686Z,9.23
2018-04-24T00:56:47.474Z,9.07
2018-04-24T00:59:15.201Z,8.40
2018-04-24T01:01:43.426Z,9.07
2018-04-24T01:04:11.509Z,8.57
2018-04-24T01:06:38.945Z,9.37
2018-04-24T01:09:06.479Z,8.20
2018-04-24T01:11:33.925Z,8.93
2018-04-24T01:14:02.184Z,8.80
2018-04-24T01:16:29.605Z,8.60
2018-04-24T01:18:57.781Z,8.33
2018-04-24T01:21:26.049Z,8.00
2018-04-24T01:23:53.599Z,8.50
2018-04-24T01:26:21.032Z,8.20
2018-04-24T01:28:49.206Z,8.63
2018-04-24T01:31:16.694Z,9.03
2018-04-24T01:33:44.157Z,9.73
2018-04-24T01:36:11.623Z,8.63
2018-04-24T01:38:39.165Z,9.07
2018-04-24T01:41:06.588Z,9.17
2018-04-24T01:43:34.807Z,8.97
2018-04-24T01:46:02.317Z,8.67
2018-04-24T01:48:30.502Z,8.37
2018-04-24T01:50:57.931Z,8.90
2018-04-24T01:53:26.138Z,9.50
2018-04-24T01:55:53.611Z,9.55
2018-04-24T01:58:21.030Z,9.77
2018-04-24T02:00:49.543Z,9.80
2018-04-24T02:03:16.979Z,10.00
2018-04-24T02:05:45.180Z,9.67
2018-04-24T02:08:12.663Z,10.27
2018-04-24T02:10:40.856Z,9.50
2018-04-24T02:13:08.390Z,9.90
2018-04-24T02:15:40.506Z,10.63
2018-04-24T02:18:08.735Z,9.20
2018-04-24T02:20:37.013Z,10.17
2018-04-24T02:23:04.439Z,9.77
2018-04-24T02:25:31.956Z,9.43
2018-04-24T02:27:59.411Z,9.77
2018-04-24T02:30:30.963Z,10.10
2018-04-24T02:32:58.611Z,10.13
2018-04-24T02:35:26.067Z,9.30
2018-04-24T02:37:53.497Z,9.73
2018-04-24T02:40:20.977Z,9.90
2018-04-24T02:42:48.453Z,9.60
2018-04-24T02:45:15.974Z,9.50
2018-04-24T02:47:43.658Z,9.60
2018-04-24T02:50:11.782Z,9.20
2018-04-24T02:52:39.307Z,11.07
2018-04-24T02:55:06.746Z,10.00
2018-04-24T02:57:34.218Z,9.83
2018-04-24T03:00:01.664Z,10.17
2018-04-24T03:02:29.077Z,9.30
2018-04-24T03:04:56.534Z,9.83
2018-04-24T03:07:24.150Z,9.93
2018-04-24T03:09:52.396Z,9.33
2018-04-24T03:12:19.881Z,9.40
2018-04-24T03:14:47.937Z,9.80
2018-04-24T03:17:15.686Z,8.60
2018-04-24T03:19:43.215Z,9.30
2018-04-24T03:22:10.647Z,9.33
2018-04-24T03:24:38.275Z,8.77
2018-04-24T03:27:05.712Z,8.73
2018-04-24T03:29:33.151Z,8.40
2018-04-24T03:32:00.588Z,8.20
2018-04-24T03:34:28.800Z,9.07
2018-04-24T03:36:56.235Z,8.50
2018-04-24T03:39:24.453Z,8.10
2018-04-24T03:41:51.875Z,8.70
2018-04-24T03:44:19.306Z,8.87
2018-04-24T03:46:47.506Z,9.30
2018-04-24T03:49:14.939Z,8.63
2018-04-24T03:51:43.124Z,8.77
2018-04-24T03:54:11.347Z,8.63
2018-04-24T03:56:38.892Z,9.10
2018-04-24T03:59:06.325Z,8.23
2018-04-24T04:01:33.868Z,7.67
2018-04-24T04:04:02.112Z,8.70
2018-04-24T04:06:29.649Z,8.67
2018-04-24T04:08:57.142Z,8.60
2018-04-24T04:11:24.578Z,8.83
2018-04-24T04:13:52.252Z,8.83
2018-04-24T04:16:19.884Z,8.60
2018-04-24T04:19:00.051Z,9.53
2018-04-24T04:21:39.393Z,9.10
2018-04-24T04:24:18.825Z,9.80
2018-04-24T04:26:46.423Z,9.40
2018-04-24T04:29:15.450Z,9.60
2018-04-24T04:31:42.969Z,9.63
2018-04-24T04:34:11.068Z,9.37
2018-04-24T04:36:38.507Z,9.63
2018-04-24T04:39:05.969Z,9.13
2018-04-24T04:41:34.225Z,9.57
2018-04-24T04:44:01.641Z,8.77
2018-04-24T04:46:29.215Z,9.97
2018-04-24T04:48:56.684Z,9.63
2018-04-24T04:51:24.580Z,10.03
2018-04-24T04:53:53.466Z,10.37
2018-04-24T04:56:21.752Z,10.40
2018-04-24T04:58:49.982Z,10.23
2018-04-24T05:01:17.446Z,10.00
2018-04-24T05:03:45.634Z,9.40
2018-04-24T05:06:14.982Z,10.50
2018-04-24T05:08:42.811Z,9.63
2018-04-24T05:11:10.418Z,10.43
2018-04-24T05:13:37.990Z,10.10
2018-04-24T05:16:05.466Z,10.53
2018-04-24T05:18:32.909Z,10.80
2018-04-24T05:21:05.614Z,10.93
2018-04-24T05:23:33.102Z,11.20
2018-04-24T05:26:00.559Z,11.60
2018-04-24T05:28:29.146Z,11.20
2018-04-24T05:30:57.342Z,11.80
2018-04-24T05:33:25.132Z,11.83
2018-04-24T05:35:52.754Z,12.87
2018-04-24T05:38:22.193Z,12.50
2018-04-24T05:40:49.635Z,12.73
2018-04-24T05:43:17.118Z,12.87
2018-04-24T05:45:44.694Z,13.00
2018-04-24T05:48:12.133Z,13.27
2018-04-24T05:50:40.411Z,13.43
2018-04-24T05:53:08.390Z,14.17
2018-04-24T05:55:35.760Z,13.40
2018-04-24T05:58:03.185Z,15.60
2018-04-24T06:00:30.631Z,13.80
2018-04-24T06:02:58.103Z,14.50
2018-04-24T06:05:25.582Z,15.17
2018-04-24T06:07:53.348Z,14.27
2018-04-24T06:10:21.165Z,13.17
2018-04-24T06:12:49.307Z,14.27
2018-04-24T06:15:16.830Z,14.90
2018-04-24T06:17:44.629Z,14.47
2018-04-24T06:20:12.210Z,14.60
2018-04-24T06:22:40.463Z,15.03
2018-04-24T06:25:07.920Z,15.17
2018-04-24T06:27:36.117Z,14.33
2018-04-24T06:30:04.324Z,14.40
2018-04-24T06:32:32.439Z,14.63
2018-04-24T06:35:00.141Z,15.03
2018-04-24T06:37:27.630Z,14.40
2018-04-24T06:39:55.083Z,14.57
2018-04-24T06:42:22.536Z,14.07
2018-04-24T06:44:50.820Z,13.80
2018-04-24T06:47:18.499Z,14.23
2018-04-24T06:49:46.150Z,13.73
2018-04-24T06:52:13.730Z,14.60
2018-04-24T06:54:41.237Z,14.00
2018-04-24T06:57:09.070Z,14.30
2018-04-24T06:59:36.516Z,14.20
2018-04-24T07:02:03.950Z,14.40
2018-04-24T07:04:31.409Z,14.07
2018-04-24T07:06:58.876Z,14.37
2018-04-24T07:09:26.405Z,14.70
2018-04-24T07:11:53.860Z,15.80
2018-04-24T07:14:21.303Z,14.93
2018-04-24T07:16:48.828Z,14.83
2018-04-24T07:19:16.493Z,15.47
2018-04-24T07:21:43.922Z,15.37
2018-04-24T07:24:11.693Z,14.80
2018-04-24T07:26:39.341Z,15.43
2018-04-24T07:29:06.790Z,17.07
2018-04-24T07:31:34.226Z,15.77
2018-04-24T07:34:01.679Z,16.73
2018-04-24T07:36:29.134Z,15.87
2018-04-24T07:38:56.603Z,15.80
2018-04-24T07:42:20.273Z,16.03
2018-04-24T07:44:48.358Z,16.60
2018-04-24T07:47:16.815Z,16.30
2018-04-24T07:49:46.236Z,15.93
2018-04-24T07:52:15.635Z,15.70
2018-04-24T07:54:43.177Z,15.73
2018-04-24T07:57:10.682Z,15.97
2018-04-24T07:59:39.041Z,14.60
2018-04-24T08:02:06.490Z,15.87
2018-04-24T08:04:34.869Z,15.03
2018-04-24T08:07:02.339Z,16.13
2018-04-24T08:09:33.051Z,15.87
2018-04-24T08:12:01.278Z,15.77
2018-04-24T08:14:39.138Z,15.53
2018-04-24T08:17:06.619Z,16.07
2018-04-24T08:19:35.070Z,16.00
2018-04-24T08:22:03.320Z,15.53
2018-04-24T08:24:32.546Z,16.10
2018-04-24T08:27:00.764Z,16.37
2018-04-24T08:29:28.273Z,15.43
2018-04-24T08:31:56.776Z,16.07
2018-04-24T08:34:25.234Z,15.90
2018-04-24T08:36:52.703Z,17.23
2018-04-24T08:39:21.149Z,16.00
2018-04-24T08:41:49.528Z,16.40
2018-04-24T08:44:17.349Z,16.67
2018-04-24T08:46:44.795Z,16.77
2018-04-24T08:49:12.245Z,17.20
2018-04-24T08:51:42.837Z,17.60
2018-04-24T08:54:13.026Z,16.83
2018-04-24T08:56:41.271Z,17.77
2018-04-24T08:59:08.739Z,17.23
2018-04-24T09:01:37.316Z,16.97
2018-04-24T09:04:05.756Z,17.67
2018-04-24T09:06:37.532Z,17.23
2018-04-24T09:09:06.953Z,17.27
2018-04-24T09:11:34.412Z,16.40
2018-04-24T09:14:01.948Z,16.77
2018-04-24T09:16:31.257Z,17.53
2018-04-24T09:18:58.728Z,16.13
2018-04-24T09:21:26.182Z,17.70
2018-04-24T09:23:53.648Z,17.00
2018-04-24T09:26:21.127Z,16.47
2018-04-24T09:28:49.376Z,18.43
2018-04-24T09:31:20.387Z,18.87
2018-04-24T09:33:53.106Z,19.70
2018-04-24T09:36:20.549Z,18.57
2018-04-24T09:38:51.207Z,18.87
2018-04-24T09:41:19.671Z,16.87
2018-04-24T09:43:47.140Z,18.80
2018-04-24T09:46:14.579Z,18.00
2018-04-24T09:48:42.032Z,18.00
2018-04-24T09:51:09.497Z,17.63
2018-04-24T09:53:37.885Z,16.53
2018-04-24T09:56:10.096Z,17.80
2018-04-24T09:58:38.324Z,19.20
2018-04-24T10:01:05.773Z,17.97
2018-04-24T10:03:34.130Z,18.43
2018-04-24T10:06:01.581Z,20.57
2018-04-24T10:08:31.008Z,19.00
2018-04-24T10:10:58.472Z,18.50
2018-04-24T10:13:26.756Z,18.27
2018-04-24T10:15:54.320Z,17.80
2018-04-24T10:18:21.768Z,17.47
2018-04-24T10:20:50.234Z,19.43
2018-04-24T10:23:17.687Z,20.23
2018-04-24T10:25:47.108Z,20.23
2018-04-24T10:28:19.378Z,23.60
2018-04-24T10:30:46.968Z,24.57
2018-04-24T10:33:14.415Z,24.83
2018-04-24T10:35:42.811Z,23.73
2018-04-24T10:38:10.253Z,25.87
2018-04-24T10:40:37.706Z,23.63
2018-04-24T10:43:06.164Z,25.37
2018-04-24T10:45:34.505Z,24.50
2018-04-24T10:48:02.772Z,24.33
2018-04-24T10:50:30.207Z,24.13
2018-04-24T10:52:57.656Z,24.50
2018-04-24T10:55:26.015Z,24.43
2018-04-24T10:57:53.663Z,22.77
2018-04-24T11:00:22.029Z,22.97
2018-04-24T11:02:50.253Z,20.50
2018-04-24T11:05:17.721Z,19.83
2018-04-24T11:07:46.094Z,19.10
2018-04-24T11:10:15.718Z,18.90
2018-04-24T11:12:53.925Z,17.30
2018-04-24T11:15:21.386Z,17.20
2018-04-24T11:17:48.856Z,15.40
2018-04-24T11:20:19.051Z,16.30
2018-04-24T11:22:46.567Z,14.63
2018-04-24T11:25:16.026Z,16.07
2018-04-24T11:27:43.829Z,16.20
2018-04-24T11:30:12.300Z,15.67
2018-04-24T11:32:39.691Z,15.93
2018-04-24T11:35:08.227Z,16.20
2018-04-24T11:37:36.462Z,16.30
2018-04-24T11:40:05.812Z,13.80
2018-04-24T11:42:35.972Z,14.97
2018-04-24T11:45:10.890Z,13.57
2018-04-24T11:47:38.538Z,12.50
2018-04-24T11:50:09.454Z,11.43
2018-04-24T11:52:37.689Z,9.60
2018-04-24T11:55:10.627Z,5.50
2018-04-24T11:57:38.907Z,4.33
2018-04-24T12:00:07.137Z,3.90
2018-04-24T12:02:34.646Z,4.13
2018-04-24T12:05:02.050Z,3.80
2018-04-24T12:07:30.329Z,2.90
2018-04-24T12:09:59.785Z,3.33
2018-04-24T12:12:27.173Z,2.90
2018-04-24T12:14:56.676Z,3.87
2018-04-24T12:17:24.137Z,3.17
2018-04-24T12:19:55.280Z,3.27
2018-04-24T12:22:25.988Z,3.13
2018-04-24T12:24:53.507Z,3.23
2018-04-24T12:27:24.300Z,2.70
2018-04-24T12:29:54.441Z,2.67
2018-04-24T12:32:21.908Z,2.30
2018-04-24T12:34:49.361Z,2.40
2018-04-24T12:37:17.660Z,3.20
2018-04-24T12:39:45.091Z,3.13
2018-04-24T12:42:13.636Z,3.40
2018-04-24T12:44:41.134Z,3.20
2018-04-24T12:47:09.566Z,2.40
2018-04-24T12:49:38.839Z,1.83
2018-04-24T12:52:07.224Z,1.87
2018-04-24T12:54:34.779Z,2.20
2018-04-24T12:57:07.663Z,2.20
2018-04-24T12:59:35.103Z,2.00
2018-04-24T13:02:02.614Z,1.73
2018-04-24T13:04:31.160Z,2.10
2018-04-24T13:06:59.541Z,1.70
2018-04-24T13:09:28.767Z,2.10
2018-04-24T13:11:56.211Z,2.23
2018-04-24T13:14:24.429Z,1.90
2018-04-24T13:16:51.973Z,2.80
2018-04-24T13:19:20.294Z,2.50
2018-04-24T13:21:47.754Z,2.27
2018-04-24T13:24:15.211Z,2.40
2018-04-24T13:26:42.657Z,1.90
2018-04-24T13:29:10.138Z,2.13
2018-04-24T13:31:37.589Z,1.90
2018-04-24T13:34:06.967Z,2.00
2018-04-24T13:36:35.480Z,2.17
2018-04-24T13:39:03.978Z,1.70
2018-04-24T13:41:32.348Z,2.23
2018-04-24T13:43:59.873Z,1.97
2018-04-24T13:46:27.328Z,2.17
2018-04-24T13:48:55.747Z,2.30
2018-04-24T13:51:23.163Z,1.93
2018-04-24T13:53:50.630Z,1.83
2018-04-24T13:56:19.970Z,1.90
2018-04-24T13:58:48.196Z,1.90
2018-04-24T14:01:15.651Z,2.00
2018-04-24T14:03:44.022Z,1.60
2018-04-24T14:06:13.434Z,1.90
2018-04-24T14:08:40.892Z,1.50
2018-04-24T14:11:08.400Z,1.80
2018-04-24T14:13:35.846Z,1.87
2018-04-24T14:16:04.316Z,2.10
2018-04-24T14:18:31.780Z,1.77
2018-04-24T14:20:59.239Z,2.23
2018-04-24T14:23:26.714Z,1.90
2018-04-24T14:25:54.948Z,1.47
2018-04-24T14:28:22.416Z,1.67
2018-04-24T14:30:49.872Z,2.00
2018-04-24T14:33:17.321Z,2.03
2018-04-24T14:35:44.776Z,1.90
2018-04-24T14:38:12.250Z,1.90
2018-04-24T14:40:39.690Z,1.83
2018-04-24T14:43:08.049Z,2.57
2018-04-24T14:45:35.543Z,2.37
2018-04-24T14:48:03.901Z,2.53
2018-04-24T14:50:31.364Z,2.50
2018-04-24T14:53:00.805Z,2.90
2018-04-24T14:55:30.069Z,2.57
2018-04-24T14:58:00.659Z,2.83
2018-04-24T15:00:28.133Z,2.87
2018-04-24T15:02:56.355Z,2.83
2018-04-24T15:05:30.548Z,2.47
2018-04-24T15:07:58.899Z,2.50
2018-04-24T15:10:26.349Z,2.57
2018-04-24T15:12:54.708Z,3.07
2018-04-24T15:15:22.181Z,3.00
2018-04-24T15:17:50.576Z,3.03
2018-04-24T15:20:26.388Z,2.70
2018-04-24T15:22:53.928Z,2.63
2018-04-24T15:25:21.383Z,3.23
2018-04-24T15:27:52.452Z,3.13
2018-04-24T15:30:20.698Z,3.87
2018-04-24T15:32:48.187Z,3.23
2018-04-24T15:35:18.625Z,3.37
2018-04-24T15:37:48.794Z,3.17
2018-04-24T15:40:16.232Z,3.57
2018-04-24T15:42:43.697Z,3.97
2018-04-24T15:45:12.042Z,4.03
2018-04-24T15:47:45.589Z,4.37
2018-04-24T15:50:13.322Z,3.87
2018-04-24T15:52:40.752Z,4.10
2018-04-24T15:55:08.982Z,4.53
2018-04-24T15:57:39.881Z,4.00
2018-04-24T16:00:07.335Z,4.23
2018-04-24T16:02:34.805Z,4.20
2018-04-24T16:05:02.261Z,3.87
2018-04-24T16:07:29.687Z,4.07
2018-04-24T16:09:57.922Z,3.70
2018-04-24T16:12:26.387Z,4.07
2018-04-24T16:14:58.044Z,4.53
2018-04-24T16:17:27.505Z,3.97
2018-04-24T16:19:56.072Z,3.77
2018-04-24T16:22:24.463Z,3.63
2018-04-24T16:24:52.383Z,4.30
2018-04-24T16:27:20.864Z,4.10
2018-04-24T16:29:53.550Z,4.47
2018-04-24T16:32:21.003Z,4.07
2018-04-24T16:34:48.462Z,3.50
2018-04-24T16:37:16.002Z,3.63
2018-04-24T16:39:44.610Z,3.60
2018-04-24T16:42:13.176Z,3.63
2018-04-24T16:44:41.780Z,3.77
2018-04-24T16:47:11.168Z,3.37
2018-04-24T16:49:39.535Z,3.70
2018-04-24T16:52:07.039Z,3.30
2018-04-24T16:54:34.516Z,3.00
2018-04-24T16:57:02.738Z,3.37
2018-04-24T16:59:30.242Z,3.03
2018-04-24T17:01:57.971Z,3.30
2018-04-24T17:04:25.441Z,2.77
2018-04-24T17:06:53.649Z,3.10
2018-04-24T17:09:23.777Z,3.70
2018-04-24T17:11:52.922Z,3.60
2018-04-24T17:14:20.399Z,3.47
2018-04-24T17:16:47.868Z,3.60
2018-04-24T17:19:16.295Z,3.60
2018-04-24T17:21:43.781Z,3.50
2018-04-24T17:24:12.155Z,3.60
2018-04-24T17:26:39.921Z,2.77
2018-04-24T17:29:07.382Z,4.03
2018-04-24T17:31:34.850Z,3.60
2018-04-24T17:34:02.322Z,3.70
2018-04-24T17:36:29.765Z,4.13
2018-04-24T17:38:57.321Z,4.03
2018-04-24T17:41:24.777Z,4.10
2018-04-24T17:43:53.123Z,4.10
2018-04-24T17:46:21.529Z,3.87
2018-04-24T17:48:49.024Z,3.27
2018-04-24T17:51:17.244Z,3.63
2018-04-24T17:53:44.705Z,3.47
2018-04-24T17:56:13.335Z,4.17
2018-04-24T17:58:45.503Z,3.50
2018-04-24T18:01:12.974Z,3.60
2018-04-24T18:03:42.094Z,2.93
2018-04-24T18:06:09.524Z,3.37
2018-04-24T18:08:37.805Z,3.50
2018-04-24T18:11:07.034Z,3.53
2018-04-24T18:13:35.402Z,3.50
2018-04-24T18:16:03.618Z,3.13
2018-04-24T18:18:31.084Z,3.67
2018-04-24T18:20:58.566Z,3.20
2018-04-24T18:23:26.019Z,3.87
2018-04-24T18:25:54.444Z,3.90
2018-04-24T18:28:23.824Z,3.80
2018-04-24T18:30:52.085Z,3.73
2018-04-24T18:33:20.319Z,4.30
2018-04-24T18:35:47.769Z,3.90
2018-04-24T18:38:20.897Z,3.67
2018-04-24T18:40:50.281Z,3.57
2018-04-24T18:43:17.745Z,4.10
2018-04-24T18:45:45.198Z,4.33
2018-04-24T18:48:13.578Z,4.10
2018-04-24T18:50:41.028Z,4.73
2018-04-24T18:53:09.568Z,4.40
2018-04-24T18:55:37.957Z,4.33
2018-04-24T18:58:05.533Z,4.40
2018-04-24T19:00:36.233Z,4.57
2018-04-24T19:03:03.730Z,4.60
2018-04-24T19:05:31.191Z,5.03
2018-04-24T19:07:58.645Z,4.83
2018-04-24T19:10:26.888Z,5.33
2018-04-24T19:12:55.297Z,4.30
2018-04-24T19:15:23.782Z,5.03
2018-04-24T19:17:51.249Z,4.53
2018-04-24T19:20:19.642Z,4.43
2018-04-24T19:22:49.446Z,4.30
2018-04-24T19:25:24.112Z,5.57
2018-04-24T19:27:52.346Z,4.37
2018-04-24T19:30:21.155Z,4.17
2018-04-24T19:32:49.516Z,4.83
2018-04-24T19:35:17.195Z,4.80
2018-04-24T19:37:44.652Z,5.83
2018-04-24T19:40:17.793Z,5.17
2018-04-24T19:42:47.235Z,5.47
2018-04-24T19:45:24.819Z,5.13
2018-04-24T19:47:52.275Z,4.93
2018-04-24T19:50:19.738Z,4.87
2018-04-24T19:52:48.192Z,4.83
2018-04-24T19:55:24.922Z,4.77
2018-04-24T19:57:56.131Z,5.10
2018-04-24T20:00:24.041Z,5.03
2018-04-24T20:02:56.987Z,5.67
2018-04-24T20:05:24.456Z,5.50
2018-04-24T20:07:51.896Z,6.37
2018-04-24T20:10:19.402Z,5.67
2018-04-24T20:12:47.661Z,6.67
2018-04-24T20:15:16.092Z,6.90
2018-04-24T20:17:45.856Z,6.73
2018-04-24T20:20:13.330Z,7.30
2018-04-24T20:22:45.365Z,7.13
2018-04-24T20:25:12.841Z,6.97
2018-04-24T20:27:41.214Z,7.73
2018-04-24T20:30:09.483Z,8.57
2018-04-24T20:32:36.950Z,7.57
2018-04-24T20:35:05.311Z,8.20
2018-04-24T20:37:32.790Z,8.37
2018-04-24T20:40:01.275Z,8.67
2018-04-24T20:42:29.622Z,8.27
2018-04-24T20:44:57.154Z,8.90
2018-04-24T20:47:24.749Z,8.73
2018-04-24T20:49:54.079Z,7.20
2018-04-24T20:52:21.911Z,8.00
2018-04-24T20:54:50.344Z,8.13
2018-04-24T20:57:18.765Z,7.47
2018-04-24T20:59:46.724Z,7.97
2018-04-24T21:02:15.127Z,9.70
2018-04-24T21:04:42.615Z,8.20
2018-04-24T21:07:13.023Z,10.07
2018-04-24T21:09:41.474Z,8.60
2018-04-24T21:12:09.959Z,7.17
2018-04-24T21:14:37.564Z,8.73
2018-04-24T21:17:05.282Z,8.97
2018-04-24T21:19:32.870Z,9.53
2018-04-24T21:22:00.253Z,10.30
2018-04-24T21:24:29.420Z,11.60
2018-04-24T21:26:56.894Z,13.60
2018-04-24T21:29:27.829Z,13.73
2018-04-24T21:31:59.989Z,12.43
2018-04-24T21:34:27.670Z,9.93
2018-04-24T21:36:55.160Z,12.40
2018-04-24T21:39:22.688Z,12.50
2018-04-24T21:41:51.134Z,10.33
2018-04-24T21:44:19.623Z,9.37
2018-04-24T21:46:47.183Z,9.80
2018-04-24T21:49:15.577Z,8.70
2018-04-24T21:51:50.783Z,9.77
2018-04-24T21:54:20.267Z,9.83
2018-04-24T21:56:48.935Z,9.27
2018-04-24T21:59:17.354Z,9.83
2018-04-24T22:01:44.901Z,9.43
2018-04-24T22:04:12.288Z,9.53
2018-04-24T22:06:40.696Z,8.57
2018-04-24T22:09:08.345Z,9.33
2018-04-24T22:11:37.756Z,9.23
2018-04-24T22:14:05.231Z,7.90
2018-04-24T22:16:34.695Z,9.00
2018-04-24T22:19:02.246Z,7.90
2018-04-24T22:21:31.057Z,7.37
2018-04-24T22:24:02.023Z,7.97
2018-04-24T22:26:34.649Z,8.83
2018-04-24T22:29:04.368Z,9.00
2018-04-24T22:31:31.826Z,9.53
2018-04-24T22:34:02.657Z,9.67
2018-04-24T22:36:31.467Z,8.57
2018-04-24T22:39:01.432Z,9.97
2018-04-24T22:41:28.922Z,8.87
2018-04-24T22:43:56.592Z,9.10
2018-04-24T22:46:27.841Z,9.87
2018-04-24T22:48:57.942Z,10.10
2018-04-24T22:51:26.193Z,9.30
2018-04-24T22:53:55.624Z,9.83
2018-04-24T22:56:23.898Z,11.03
2018-04-24T22:58:52.401Z,10.63
2018-04-24T23:01:20.815Z,11.20
2018-04-24T23:03:49.285Z,11.20
2018-04-24T23:06:16.764Z,11.90
2018-04-24T23:08:44.275Z,11.77
2018-04-24T23:11:24.617Z,13.00
2018-04-24T23:14:03.984Z,12.87
2018-04-24T23:16:43.321Z,12.20
2018-04-24T23:19:23.517Z,11.87
2018-04-24T23:21:50.503Z,11.53
2018-04-24T23:24:21.371Z,11.53
2018-04-24T23:26:49.650Z,12.43
2018-04-24T23:29:18.335Z,12.00
2018-04-24T23:32:02.582Z,12.80
2018-04-24T23:34:32.071Z,11.93
2018-04-24T23:37:04.521Z,12.63
2018-04-24T23:39:35.158Z,13.50
2018-04-24T23:42:03.651Z,14.13
2018-04-24T23:44:31.134Z,12.80
2018-04-24T23:46:59.904Z,13.83
2018-04-24T23:49:27.521Z,13.67
2018-04-24T23:51:57.197Z,15.43
2018-04-24T23:54:26.598Z,14.37
2018-04-24T23:56:54.063Z,15.67
2018-04-24T23:59:24.015Z,14.82
